createdAt,value
2023-01-23T00:03:00.128Z,7.3
2023-01-23T00:06:02.065Z,7.8
2023-01-23T00:09:04.036Z,7.8
2023-01-23T00:12:05.980Z,8.5
2023-01-23T00:15:07.944Z,8.8
2023-01-23T00:18:09.894Z,7.4
2023-01-23T00:21:11.903Z,7.4
2023-01-23T00:24:13.919Z,7.5
2023-01-23T00:27:15.885Z,7
2023-01-23T00:30:18.120Z,7.2
2023-01-23T00:33:19.806Z,6.6
2023-01-23T00:36:21.766Z,7.9
2023-01-23T00:39:23.747Z,7.2
2023-01-23T00:42:25.697Z,6.7
2023-01-23T00:45:27.648Z,6.7
2023-01-23T00:48:29.620Z,7.3
2023-01-23T00:51:31.601Z,6.7
2023-01-23T00:54:33.544Z,7
2023-01-23T00:57:35.510Z,8.2
2023-01-23T01:00:37.476Z,7.7
2023-01-23T01:03:39.461Z,7.2
2023-01-23T01:06:41.394Z,7
2023-01-23T01:09:43.360Z,6.8
2023-01-23T01:12:45.316Z,7.3
2023-01-23T01:15:47.316Z,7.7
2023-01-23T01:18:49.247Z,6.7
2023-01-23T01:21:51.218Z,6.7
2023-01-23T01:24:53.172Z,7.2
2023-01-23T01:27:55.147Z,6.6
2023-01-23T01:30:57.158Z,7
2023-01-23T01:33:59.072Z,7.3
2023-01-23T01:37:01.041Z,7.7
2023-01-23T01:40:02.989Z,7.7
2023-01-23T01:43:04.977Z,7
2023-01-23T01:46:06.969Z,7.6
2023-01-23T01:49:08.913Z,7
2023-01-23T01:52:10.871Z,8.4
2023-01-23T01:55:12.833Z,6.8
2023-01-23T01:58:14.785Z,8.3
2023-01-23T02:01:16.751Z,7.5
2023-01-23T02:04:18.730Z,8.7
2023-01-23T02:07:20.702Z,7.8
2023-01-23T02:10:22.648Z,8.5
2023-01-23T02:13:24.604Z,8.4
2023-01-23T02:16:26.638Z,7.7
2023-01-23T02:19:28.546Z,8.7
2023-01-23T02:22:30.529Z,7.8
2023-01-23T02:25:32.489Z,8.9
2023-01-23T02:28:34.480Z,8.1
2023-01-23T02:31:36.626Z,9.4
2023-01-23T02:34:38.427Z,9.5
2023-01-23T02:37:40.356Z,9.4
2023-01-23T02:40:42.347Z,8.6
2023-01-23T02:43:44.288Z,7.6
2023-01-23T02:46:46.303Z,8.4
2023-01-23T02:49:48.246Z,9
2023-01-23T02:52:50.191Z,9.9
2023-01-23T02:55:52.132Z,9.1
2023-01-23T02:58:54.110Z,9.9
2023-01-23T03:01:56.112Z,10.9
2023-01-23T03:04:58.035Z,9
2023-01-23T03:07:59.983Z,9.8
2023-01-23T03:11:01.986Z,9.7
2023-01-23T03:14:03.929Z,9.2
2023-01-23T03:17:05.905Z,10.1
2023-01-23T03:20:07.873Z,9.4
2023-01-23T03:23:09.843Z,8.8
2023-01-23T03:26:11.798Z,7.6
2023-01-23T03:29:13.770Z,8.7
2023-01-23T03:32:15.725Z,8.6
2023-01-23T03:35:17.700Z,8.6
2023-01-23T03:38:19.653Z,8.3
2023-01-23T03:41:21.643Z,8.6
2023-01-23T03:44:23.624Z,9.9
2023-01-23T03:47:25.551Z,9.3
2023-01-23T03:50:27.543Z,8.8
2023-01-23T03:53:29.485Z,8.5
2023-01-23T03:56:31.463Z,8.7
2023-01-23T03:59:33.433Z,8.5
2023-01-23T04:02:35.411Z,9.7
2023-01-23T04:05:37.361Z,8.6
2023-01-23T04:08:39.331Z,8.5
2023-01-23T04:11:41.307Z,9.2
2023-01-23T04:14:43.277Z,8.9
2023-01-23T04:17:45.235Z,9.5
2023-01-23T04:20:47.160Z,8.1
2023-01-23T04:23:49.128Z,9.1
2023-01-23T04:26:51.316Z,8.9
2023-01-23T04:29:53.074Z,8.2
2023-01-23T04:32:55.058Z,9
2023-01-23T04:35:57.007Z,7.9
2023-01-23T04:38:59.005Z,8.2
2023-01-23T04:42:00.946Z,8.1
2023-01-23T04:45:02.920Z,8.3
2023-01-23T04:48:04.887Z,8
2023-01-23T04:51:07.014Z,8.3
2023-01-23T04:54:08.821Z,8.5
2023-01-23T04:57:10.798Z,7.4
2023-01-23T05:00:12.836Z,8
2023-01-23T05:03:14.720Z,7.7
2023-01-23T05:06:16.693Z,7.7
2023-01-23T05:09:18.647Z,7.1
2023-01-23T05:12:20.595Z,7.9
2023-01-23T05:15:22.547Z,7.7
2023-01-23T05:18:24.518Z,7.2
2023-01-23T05:21:26.487Z,7.2
2023-01-23T05:24:28.463Z,7.3
2023-01-23T05:27:30.433Z,6.6
2023-01-23T05:30:32.512Z,7.8
2023-01-23T05:33:34.364Z,7.2
2023-01-23T05:36:36.326Z,6.4
2023-01-23T05:39:38.286Z,7.1
2023-01-23T05:42:40.252Z,6.2
2023-01-23T05:45:42.293Z,5.9
2023-01-23T05:48:44.205Z,6
2023-01-23T05:51:46.128Z,6.1
2023-01-23T05:54:48.099Z,6
2023-01-23T05:57:50.047Z,6.3
2023-01-23T06:00:52.005Z,5.9
2023-01-23T06:03:54.122Z,6
2023-01-23T06:06:55.944Z,6.1
2023-01-23T06:09:57.895Z,5.6
2023-01-23T06:12:59.869Z,5.6
2023-01-23T06:16:01.909Z,6.4
2023-01-23T06:19:03.841Z,6.1
2023-01-23T06:22:05.777Z,5.4
2023-01-23T06:25:07.765Z,5.7
2023-01-23T06:28:09.729Z,5.7
2023-01-23T06:31:11.891Z,5.4
2023-01-23T06:34:13.634Z,5.9
2023-01-23T06:37:15.589Z,6
2023-01-23T06:40:17.706Z,6.1
2023-01-23T06:43:19.526Z,5.4
2023-01-23T06:46:21.510Z,6.3
2023-01-23T06:49:23.474Z,5.3
2023-01-23T06:52:25.422Z,5
2023-01-23T06:55:27.393Z,5.6
2023-01-23T06:58:29.365Z,5.2
2023-01-23T07:01:31.368Z,5.9
2023-01-23T07:04:33.297Z,5.4
2023-01-23T07:07:35.279Z,6.3
2023-01-23T07:10:37.234Z,6.5
2023-01-23T07:13:39.227Z,5.7
2023-01-23T07:16:41.194Z,5.9
2023-01-23T07:19:43.156Z,5.2
2023-01-23T07:22:45.143Z,5.1
2023-01-23T07:25:47.092Z,6.8
2023-01-23T07:28:49.065Z,6.5
2023-01-23T07:31:51.054Z,6.3
2023-01-23T07:34:53.013Z,6
2023-01-23T07:37:54.972Z,5.9
2023-01-23T07:40:56.932Z,5.9
2023-01-23T07:43:58.895Z,5.2
2023-01-23T07:47:00.864Z,5
2023-01-23T07:50:02.833Z,5.1
2023-01-23T07:53:04.799Z,5.8
2023-01-23T07:56:06.772Z,6.5
2023-01-23T07:59:08.727Z,6.1
2023-01-23T08:02:10.813Z,6.2
2023-01-23T08:05:12.678Z,5
2023-01-23T08:08:14.652Z,5.8
2023-01-23T08:11:16.616Z,5.3
2023-01-23T08:14:18.571Z,6.1
2023-01-23T08:17:20.554Z,5.7
2023-01-23T08:20:22.671Z,6.2
2023-01-23T08:23:24.478Z,5.2
2023-01-23T08:26:26.484Z,6
2023-01-23T08:29:28.418Z,5.3
2023-01-23T08:32:30.384Z,5.7
2023-01-23T08:35:32.339Z,5.2
2023-01-23T08:38:34.293Z,5.1
2023-01-23T08:41:36.248Z,5.8
2023-01-23T08:44:38.231Z,5.9
2023-01-23T08:47:40.193Z,5.6
2023-01-23T08:50:42.130Z,6.3
2023-01-23T08:53:44.101Z,5.3
2023-01-23T08:56:46.599Z,5.2
2023-01-23T08:59:48.049Z,5
2023-01-23T09:02:50.035Z,6.2
2023-01-23T09:05:51.954Z,5.2
2023-01-23T09:08:53.925Z,5.7
2023-01-23T09:11:55.892Z,6.8
2023-01-23T09:14:57.872Z,5.9
2023-01-23T09:17:59.829Z,6.4
2023-01-23T09:21:01.792Z,6
2023-01-23T09:24:03.774Z,5.6
2023-01-23T09:27:05.725Z,6
2023-01-23T09:30:07.719Z,5.7
2023-01-23T09:33:09.650Z,6.6
2023-01-23T09:36:11.631Z,5.8
2023-01-23T09:39:13.570Z,6.7
2023-01-23T09:42:15.556Z,6.7
2023-01-23T09:45:17.506Z,7.2
2023-01-23T09:48:19.466Z,6.1
2023-01-23T09:51:21.667Z,6.6
2023-01-23T09:54:23.399Z,6.5
2023-01-23T09:57:25.361Z,5.3
2023-01-23T10:00:27.343Z,6.2
2023-01-23T10:03:29.317Z,6.8
2023-01-23T10:06:31.271Z,6.5
2023-01-23T10:09:33.224Z,7
2023-01-23T10:12:35.193Z,6.6
2023-01-23T10:15:37.183Z,6.9
2023-01-23T10:18:39.135Z,5.9
2023-01-23T10:21:41.145Z,6.9
2023-01-23T10:24:45.345Z,6.3
2023-01-23T10:27:45.073Z,5.2
2023-01-23T10:30:47.082Z,6.6
2023-01-23T10:33:49.008Z,6.8
2023-01-23T10:36:54.611Z,7.1
2023-01-23T10:39:52.980Z,6.9
2023-01-23T10:42:54.905Z,6
2023-01-23T10:45:56.909Z,6.8
2023-01-23T10:48:58.841Z,6.2
2023-01-23T10:52:00.819Z,6.3
2023-01-23T10:55:02.798Z,6.4
2023-01-23T10:58:04.743Z,6.4
2023-01-23T11:01:06.779Z,5.6
2023-01-23T11:04:08.687Z,6.3
2023-01-23T11:07:10.633Z,5.9
2023-01-23T11:10:12.613Z,6
2023-01-23T11:13:14.575Z,6
2023-01-23T11:16:16.621Z,5.6
2023-01-23T11:19:18.499Z,6.8
2023-01-23T11:22:20.450Z,5.8
2023-01-23T11:25:22.460Z,6.2
2023-01-23T11:28:24.383Z,5.4
2023-01-23T11:31:26.467Z,5
2023-01-23T11:34:28.330Z,4.7
2023-01-23T11:37:30.312Z,4.8
2023-01-23T11:40:32.301Z,5
2023-01-23T11:43:34.253Z,4.6
2023-01-23T11:46:36.224Z,4.4
2023-01-23T11:49:38.210Z,4.3
2023-01-23T11:52:40.166Z,4.3
2023-01-23T11:55:42.187Z,4.5
2023-01-23T11:58:49.612Z,4.7
2023-01-23T12:01:52.070Z,4.6
2023-01-23T12:04:48.039Z,4.4
2023-01-23T12:07:49.973Z,4.7
2023-01-23T12:10:51.953Z,4.5
2023-01-23T12:13:54.722Z,4.2
2023-01-23T12:16:55.846Z,4.9
2023-01-23T12:19:57.877Z,5.1
2023-01-23T12:22:59.846Z,4.3
2023-01-23T12:26:01.838Z,4.8
2023-01-23T12:29:03.813Z,4.4
2023-01-23T12:32:05.900Z,5.3
2023-01-23T12:35:07.754Z,5.1
2023-01-23T12:38:09.773Z,5.5
2023-01-23T12:41:11.755Z,5.2
2023-01-23T12:44:13.704Z,5.1
2023-01-23T12:47:15.643Z,5.9
2023-01-23T12:50:17.642Z,5.7
2023-01-23T12:53:19.599Z,5.8
2023-01-23T12:56:21.557Z,6.1
2023-01-23T12:59:23.493Z,5.2
2023-01-23T13:02:25.740Z,6.3
2023-01-23T13:05:27.542Z,5.1
2023-01-23T13:08:31.536Z,6
2023-01-23T13:11:31.460Z,5.9
2023-01-23T13:14:47.618Z,5.7
2023-01-23T13:17:35.394Z,5.6
2023-01-23T13:20:37.390Z,4.9
2023-01-23T13:23:39.379Z,5.2
2023-01-23T13:26:41.315Z,6.3
2023-01-23T13:29:43.280Z,5.4
2023-01-23T13:32:45.242Z,6.2
2023-01-23T13:35:47.194Z,5.5
2023-01-23T13:38:49.154Z,5.8
2023-01-23T13:41:51.128Z,6.1
2023-01-23T13:44:54.504Z,6.2
2023-01-23T14:21:18.610Z,5.4
2023-01-23T14:24:18.673Z,5
2023-01-23T14:27:21.889Z,5.4
2023-01-23T14:30:22.573Z,4.9
2023-01-23T14:33:24.564Z,5.5
2023-01-23T14:36:26.508Z,6
2023-01-23T14:39:28.463Z,6.1
2023-01-23T14:42:30.457Z,6.1
2023-01-23T14:45:33.399Z,5.7
2023-01-23T14:48:34.367Z,6
2023-01-23T14:51:36.329Z,5.6
2023-01-23T14:54:38.875Z,6.6
2023-01-23T14:57:40.283Z,6.4
2023-01-23T15:00:42.243Z,6.7
2023-01-23T15:03:44.223Z,6.8
2023-01-23T15:06:46.166Z,7.2
2023-01-23T15:09:48.138Z,7.4
2023-01-23T15:12:50.106Z,6.9
2023-01-23T15:15:52.077Z,7.1
2023-01-23T15:18:54.052Z,6.6
2023-01-23T15:21:55.991Z,6.2
2023-01-23T15:24:57.973Z,7.3
2023-01-23T15:27:59.964Z,7.5
2023-01-23T15:31:01.927Z,7.3
2023-01-23T15:34:03.852Z,7.9
2023-01-23T15:37:05.794Z,6.7
2023-01-23T15:40:07.776Z,6.7
2023-01-23T15:43:09.735Z,7.2
2023-01-23T15:46:11.721Z,6.9
2023-01-23T15:49:24.754Z,7.4
2023-01-23T15:52:15.630Z,7
2023-01-23T15:55:17.560Z,7
2023-01-23T15:58:19.630Z,7.5
2023-01-23T16:01:21.522Z,7.3
2023-01-23T16:04:23.486Z,7.4
2023-01-23T16:07:25.428Z,7
2023-01-23T16:10:27.433Z,6.8
2023-01-23T16:13:29.404Z,6.6
2023-01-23T16:16:31.380Z,6.5
2023-01-23T16:19:33.315Z,6.5
2023-01-23T16:22:35.261Z,7.2
2023-01-23T16:25:43.902Z,6.6
2023-01-23T16:28:39.204Z,6.8
2023-01-23T16:31:41.249Z,7.7
2023-01-23T16:34:43.121Z,7.8
2023-01-23T16:37:45.093Z,7
2023-01-23T16:40:47.112Z,7.6
2023-01-23T16:43:49.033Z,7.2
2023-01-23T16:46:51.104Z,7.5
2023-01-23T16:49:54.124Z,7.5
2023-01-23T16:52:54.945Z,7.4
2023-01-23T16:55:56.890Z,7.3
2023-01-23T16:58:58.866Z,6.3
2023-01-23T17:02:00.859Z,7.6
2023-01-23T17:05:02.818Z,7.2
2023-01-23T17:08:04.773Z,6.7
2023-01-23T17:11:06.765Z,8.5
2023-01-23T17:14:08.809Z,7.9
2023-01-23T17:17:10.810Z,7.1
2023-01-23T17:20:12.766Z,7
2023-01-23T17:23:14.689Z,8.1
2023-01-23T17:26:16.675Z,7.3
2023-01-23T17:29:18.672Z,8.5
2023-01-23T17:32:20.662Z,7.5
2023-01-23T17:35:23.128Z,8
2023-01-23T17:38:24.553Z,7.7
2023-01-23T17:41:26.559Z,9.1
2023-01-23T17:44:28.488Z,8.8
2023-01-23T17:47:30.691Z,8.6
2023-01-23T17:50:32.664Z,8.9
2023-01-23T17:53:34.646Z,8.5
2023-01-23T17:56:36.615Z,8.5
2023-01-23T17:59:38.578Z,8.3
2023-01-23T18:02:40.563Z,8.4
2023-01-23T18:05:42.479Z,7.5
2023-01-23T18:08:44.430Z,9.2
2023-01-23T18:11:48.288Z,8.4
2023-01-23T18:14:48.358Z,9.2
2023-01-23T18:17:50.308Z,8.3
2023-01-23T18:20:52.311Z,8.4
2023-01-23T18:23:54.304Z,8.6
2023-01-23T18:26:56.231Z,8.4
2023-01-23T18:29:58.199Z,8.1
2023-01-23T18:33:00.165Z,8.6
2023-01-23T18:36:02.118Z,8.7
2023-01-23T18:39:04.301Z,9.4
2023-01-23T18:42:06.167Z,9.7
2023-01-23T18:45:08.107Z,8.7
2023-01-23T18:48:23.589Z,8.9
2023-01-23T18:51:12.053Z,9.4
2023-01-23T18:54:14.025Z,9.3
2023-01-23T18:57:15.959Z,9
2023-01-23T19:00:17.949Z,8.8
2023-01-23T19:03:19.919Z,9.7
2023-01-23T19:06:21.913Z,9.4
2023-01-23T19:09:23.887Z,8.9
2023-01-23T19:12:26.114Z,10.1
2023-01-23T19:15:27.812Z,9.7
2023-01-23T19:18:39.643Z,9.1
2023-01-23T19:21:31.903Z,9.4
2023-01-23T19:24:33.853Z,9.4
2023-01-23T19:27:35.832Z,10.8
2023-01-23T19:30:37.824Z,8.9
2023-01-23T19:33:39.740Z,7.9
2023-01-23T19:36:41.707Z,9
2023-01-23T19:39:43.690Z,10.4
2023-01-23T19:42:52.700Z,11.3
2023-01-23T19:45:47.656Z,10.3
2023-01-23T19:48:49.619Z,10.5
2023-01-23T19:51:51.658Z,10.5
2023-01-23T19:54:53.611Z,11.2
2023-01-23T19:57:55.585Z,9.7
2023-01-23T20:00:57.639Z,10.3
2023-01-23T20:03:59.541Z,12
2023-01-23T20:07:01.499Z,11.5
2023-01-23T20:10:03.454Z,11.3
2023-01-23T20:13:05.441Z,11.4
2023-01-23T20:16:07.429Z,11.6
2023-01-23T20:19:09.367Z,11.2
2023-01-23T20:22:11.330Z,11.3
2023-01-23T20:25:13.305Z,11.6
2023-01-23T20:28:15.237Z,11.9
2023-01-23T20:31:20.029Z,11.1
2023-01-23T20:34:21.911Z,11.4
2023-01-23T20:37:23.901Z,12.1
2023-01-23T20:40:25.969Z,12.3
2023-01-23T20:43:27.942Z,12.6
2023-01-23T20:46:29.941Z,11.5
2023-01-23T20:49:31.850Z,11.7
2023-01-23T20:52:33.836Z,10.7
2023-01-23T20:55:35.771Z,11.3
2023-01-23T20:58:37.746Z,10.9
2023-01-23T21:01:39.746Z,11.4
2023-01-23T21:04:41.692Z,11.4
2023-01-23T21:07:43.655Z,12
2023-01-23T21:10:45.625Z,10.2
2023-01-23T21:13:47.568Z,9.8
2023-01-23T21:16:49.527Z,10.9
2023-01-23T21:19:51.480Z,10.5
2023-01-23T21:22:53.461Z,10.3
2023-01-23T21:25:55.412Z,11.5
2023-01-23T21:28:57.397Z,11.2
2023-01-23T21:31:59.402Z,11.1
2023-01-23T21:35:01.321Z,11.8
2023-01-23T21:38:03.274Z,10.8
2023-01-23T21:41:05.250Z,10.4
2023-01-23T21:44:07.199Z,11.9
2023-01-23T21:47:09.171Z,10.4
2023-01-23T21:50:11.130Z,11.1
2023-01-23T21:53:13.109Z,10.4
2023-01-23T21:56:15.053Z,11.1
2023-01-23T21:59:17.034Z,11.3
2023-01-23T22:02:18.988Z,11.1
2023-01-23T22:05:21.114Z,11.5
2023-01-23T22:08:22.971Z,11.8
2023-01-23T22:11:24.952Z,12.4
2023-01-23T22:14:26.903Z,12.1
2023-01-23T22:17:28.887Z,11.6
2023-01-23T22:20:30.835Z,10.6
2023-01-23T22:23:32.805Z,10.8
2023-01-23T22:26:34.782Z,10.4
2023-01-23T22:29:36.710Z,11.2
2023-01-23T22:32:38.668Z,11.5
2023-01-23T22:35:40.645Z,11.4
2023-01-23T22:38:42.597Z,10.6
2023-01-23T22:41:44.560Z,11.5
2023-01-23T22:44:46.526Z,11.7
2023-01-23T22:47:48.481Z,10.8
2023-01-23T22:50:50.430Z,11.7
2023-01-23T22:53:52.433Z,10.7
2023-01-23T22:56:54.375Z,10.5
2023-01-23T22:59:56.329Z,10.2
2023-01-23T23:02:58.298Z,10.6
2023-01-23T23:06:00.275Z,11.2
2023-01-23T23:09:02.250Z,11.6
2023-01-23T23:12:04.216Z,10.9
2023-01-23T23:15:06.172Z,11.5
2023-01-23T23:18:08.128Z,11.3
2023-01-23T23:21:10.095Z,11.7
2023-01-23T23:24:12.167Z,10.4
2023-01-23T23:27:14.059Z,11
2023-01-23T23:30:16.003Z,11.7
2023-01-23T23:33:17.960Z,10.8
2023-01-23T23:36:19.944Z,9.9
2023-01-23T23:39:21.895Z,11.3
2023-01-23T23:42:23.858Z,10.7
2023-01-23T23:45:25.842Z,12.2
2023-01-23T23:48:27.785Z,10.4
2023-01-23T23:51:29.747Z,9.6
2023-01-23T23:54:31.732Z,11.8
2023-01-23T23:57:33.687Z,13.4
